Time;durP1;ratioP1;P1;durP2;ratioP2;P2;SDS_P1;SDS_P2;PMS_P1;PMS_P2;Temp;Humidity;BMP_temperature;BMP_pressure;BME280_temperature;BME280_humidity;BME280_pressure;Samples;Min_cycle;Max_cycle;Signal;HPM_P1;HPM_P2
2023/04/16 00:01:39;;;;;;;162.50;58.17;;;7.60;99.90;;;;;;5013526;28;20312;-65
2023/04/16 00:04:05;;;;;;;147.52;59.13;;;7.70;99.90;;;;;;5015421;28;20048;-64
2023/04/16 00:06:31;;;;;;;133.07;57.85;;;7.40;99.90;;;;;;5000979;28;20047;-64
2023/04/16 00:08:57;;;;;;;124.80;57.38;;;7.30;99.90;;;;;;4983267;28;20407;-64
2023/04/16 00:11:23;;;;;;;144.73;61.53;;;7.60;99.90;;;;;;5011145;28;20616;-63
2023/04/16 00:13:48;;;;;;;165.05;63.53;;;7.50;99.90;;;;;;5007707;28;20267;-65
2023/04/16 00:16:14;;;;;;;185.35;70.68;;;7.50;99.90;;;;;;5019766;28;20041;-63
2023/04/16 00:18:40;;;;;;;185.80;68.95;;;7.50;99.90;;;;;;5017317;28;20079;-65
2023/04/16 00:21:06;;;;;;;185.52;69.60;;;7.30;99.90;;;;;;4998168;28;20120;-64
2023/04/16 00:23:32;;;;;;;242.18;76.00;;;7.70;99.90;;;;;;5039177;28;20041;-65
2023/04/16 00:25:58;;;;;;;239.45;73.57;;;7.90;99.90;;;;;;5020876;28;20044;-64
2023/04/16 00:28:26;;;;;;;232.93;75.07;;;7.80;99.90;;;;;;5032970;28;20941;-64
2023/04/16 00:30:52;;;;;;;241.77;73.88;;;7.70;99.90;;;;;;5019248;28;20126;-64
2023/04/16 00:33:18;;;;;;;246.32;78.45;;;7.60;99.90;;;;;;5015945;28;20414;-64
2023/04/16 00:35:47;;;;;;;264.05;77.55;;;7.70;99.90;;;;;;5019148;28;20052;-63
2023/04/16 00:38:13;;;;;;;259.00;75.18;;;7.50;99.90;;;;;;5023259;28;20192;-64
2023/04/16 00:40:39;;;;;;;273.23;77.82;;;7.70;99.90;;;;;;5020865;28;20258;-64
2023/04/16 00:43:05;;;;;;;255.02;76.30;;;7.60;99.90;;;;;;5020605;28;20087;-65
2023/04/16 00:45:31;;;;;;;345.85;84.32;;;7.70;99.90;;;;;;5020585;28;20076;-64
2023/04/16 00:47:58;;;;;;;312.88;82.53;;;7.90;99.90;;;;;;5022578;28;20045;-64
2023/04/16 00:50:23;;;;;;;322.27;76.30;;;7.70;99.90;;;;;;5019939;28;20495;-63
2023/04/16 00:52:50;;;;;;;282.30;71.93;;;8.00;99.90;;;;;;5019633;28;20047;-64
2023/04/16 00:55:17;;;;;;;294.65;81.15;;;7.60;99.90;;;;;;5020122;28;20634;-62
2023/04/16 00:57:44;;;;;;;246.90;75.53;;;7.50;99.90;;;;;;5019598;28;20618;-64
2023/04/16 01:00:10;;;;;;;180.15;71.25;;;7.50;99.90;;;;;;5018977;28;20077;-63
2023/04/16 01:02:37;;;;;;;237.82;81.35;;;7.80;99.90;;;;;;5019790;28;20076;-63
2023/04/16 01:05:04;;;;;;;219.85;74.35;;;7.70;99.90;;;;;;5019786;28;20052;-63
2023/04/16 01:07:30;;;;;;;230.07;79.20;;;7.20;99.90;;;;;;5020792;28;20136;-64
2023/04/16 01:09:56;;;;;;;216.00;74.35;;;7.60;99.90;;;;;;5021379;28;20272;-63
2023/04/16 01:12:21;;;;;;;166.05;67.82;;;7.50;99.90;;;;;;5020745;28;20053;-64
2023/04/16 01:14:47;;;;;;;177.45;73.22;;;7.30;99.90;;;;;;5019779;28;20091;-64
2023/04/16 01:17:13;;;;;;;171.55;71.85;;;7.30;99.90;;;;;;5022315;28;20052;-64
2023/04/16 01:19:39;;;;;;;159.60;69.05;;;7.30;99.90;;;;;;5019878;28;20128;-63
2023/04/16 01:22:05;;;;;;;167.85;69.50;;;7.30;99.90;;;;;;5020561;28;20447;-64
2023/04/16 01:24:31;;;;;;;173.80;70.88;;;7.20;99.90;;;;;;5020212;28;20037;-64
2023/04/16 01:26:58;;;;;;;168.73;69.40;;;7.10;99.90;;;;;;5007449;28;20052;-64
2023/04/16 01:29:24;;;;;;;173.93;73.18;;;7.20;99.90;;;;;;5020269;28;20908;-63
2023/04/16 01:31:50;;;;;;;161.35;68.20;;;7.10;99.90;;;;;;5020970;28;20045;-64
2023/04/16 01:34:16;;;;;;;152.63;66.20;;;7.30;99.90;;;;;;5022269;28;20091;-65
2023/04/16 01:36:41;;;;;;;136.02;63.28;;;7.00;99.90;;;;;;5015407;28;20029;-64
2023/04/16 01:39:10;;;;;;;158.77;67.65;;;7.10;99.90;;;;;;5021631;28;20037;-63
2023/04/16 01:41:36;;;;;;;158.38;68.43;;;7.00;99.90;;;;;;5021726;28;20664;-64
2023/04/16 01:44:02;;;;;;;149.35;65.07;;;7.10;99.90;;;;;;5029483;28;20033;-64
2023/04/16 01:46:31;;;;;;;166.57;67.93;;;7.00;99.90;;;;;;5029355;28;20044;-63
2023/04/16 01:49:00;;;;;;;184.73;71.78;;;6.80;99.90;;;;;;5017773;28;20589;-63
2023/04/16 01:51:26;;;;;;;169.93;67.65;;;6.90;99.90;;;;;;5029093;28;20084;-63
2023/04/16 01:53:53;;;;;;;157.73;65.97;;;6.80;99.90;;;;;;5017547;28;20389;-64
2023/04/16 01:56:19;;;;;;;165.63;64.03;;;7.00;99.90;;;;;;5013269;28;20069;-64
2023/04/16 01:58:46;;;;;;;154.10;63.38;;;6.70;99.90;;;;;;5000879;28;20132;-64
2023/04/16 02:01:12;;;;;;;145.38;63.40;;;6.90;99.90;;;;;;5027527;28;20597;-64
2023/04/16 02:03:39;;;;;;;145.45;66.05;;;7.30;99.90;;;;;;5016491;28;20507;-63
2023/04/16 02:06:05;;;;;;;134.50;60.85;;;7.10;99.90;;;;;;5014324;28;20034;-64
2023/04/16 02:08:31;;;;;;;142.65;64.97;;;6.80;99.90;;;;;;5015818;28;20423;-65
2023/04/16 02:10:57;;;;;;;127.60;63.08;;;6.90;99.90;;;;;;4992899;28;20094;-65
2023/04/16 02:13:24;;;;;;;120.35;58.25;;;7.10;99.90;;;;;;5009716;28;20406;-62
2023/04/16 02:15:51;;;;;;;149.75;66.75;;;7.10;99.90;;;;;;5016197;28;20366;-64
2023/04/16 02:18:17;;;;;;;135.80;63.50;;;7.40;99.90;;;;;;5013059;28;20706;-65
2023/04/16 02:20:45;;;;;;;144.85;66.75;;;7.10;99.90;;;;;;5015485;28;20033;-64
2023/04/16 02:23:13;;;;;;;162.27;69.47;;;7.00;99.90;;;;;;5014996;28;20099;-63
2023/04/16 02:25:44;;;;;;;169.30;69.70;;;7.20;99.90;;;;;;5044764;28;20045;-64
2023/04/16 02:28:14;;;;;;;169.55;71.60;;;7.20;99.90;;;;;;4997984;28;20105;-64
2023/04/16 02:30:40;;;;;;;173.98;68.72;;;6.60;99.90;;;;;;5015046;28;20053;-64
2023/04/16 02:33:08;;;;;;;153.82;66.18;;;7.10;99.90;;;;;;5014397;28;20073;-64
2023/04/16 02:35:36;;;;;;;179.80;71.35;;;6.90;99.90;;;;;;5015210;28;20482;-64
2023/04/16 02:38:03;;;;;;;182.65;72.32;;;6.90;99.90;;;;;;5011544;28;20577;-64
2023/04/16 02:40:30;;;;;;;166.60;69.30;;;6.70;99.90;;;;;;5007930;28;20164;-65
2023/04/16 02:42:56;;;;;;;146.05;64.25;;;7.00;99.90;;;;;;5014182;28;20041;-64
2023/04/16 02:45:22;;;;;;;134.88;62.00;;;7.00;99.90;;;;;;5011105;28;20276;-64
2023/04/16 02:47:48;;;;;;;131.82;58.28;;;7.10;99.90;;;;;;5016023;28;20033;-64
2023/04/16 02:50:15;;;;;;;133.15;59.60;;;7.00;99.90;;;;;;5021801;28;20493;-65
2023/04/16 02:52:40;;;;;;;117.07;55.55;;;7.10;99.90;;;;;;5009425;28;20037;-64
2023/04/16 02:55:07;;;;;;;135.48;62.58;;;7.10;99.90;;;;;;5033286;28;20064;-64
2023/04/16 02:57:33;;;;;;;124.15;58.03;;;7.30;99.90;;;;;;5014803;28;20033;-64
2023/04/16 02:59:59;;;;;;;127.55;57.20;;;6.80;99.90;;;;;;5020347;28;20048;-64
2023/04/16 03:02:25;;;;;;;135.18;59.38;;;7.00;99.90;;;;;;5015994;28;20045;-64
2023/04/16 03:04:51;;;;;;;131.98;58.55;;;7.20;99.90;;;;;;5027329;28;20628;-64
2023/04/16 03:07:17;;;;;;;118.22;55.53;;;7.30;99.90;;;;;;5014600;28;20201;-64
2023/04/16 03:09:43;;;;;;;149.40;62.03;;;7.30;99.90;;;;;;5016705;28;20120;-64
2023/04/16 03:12:09;;;;;;;141.65;60.42;;;7.20;99.90;;;;;;5016487;28;20055;-63
2023/04/16 03:14:35;;;;;;;137.38;59.22;;;7.20;99.90;;;;;;5014382;28;20045;-63
2023/04/16 03:17:00;;;;;;;130.52;58.25;;;7.10;99.90;;;;;;5033166;28;20045;-64
2023/04/16 03:19:26;;;;;;;142.27;57.22;;;7.10;99.90;;;;;;4998835;28;20370;-64
2023/04/16 03:21:52;;;;;;;149.82;57.97;;;6.80;99.90;;;;;;5026598;28;20041;-65
2023/04/16 03:24:17;;;;;;;149.57;56.08;;;7.10;99.90;;;;;;5014711;28;20047;-64
2023/04/16 03:26:43;;;;;;;151.73;57.30;;;7.00;99.90;;;;;;5015755;28;20731;-64
2023/04/16 03:29:09;;;;;;;123.65;52.08;;;6.90;99.90;;;;;;5013777;28;20041;-65
2023/04/16 03:31:35;;;;;;;123.25;51.63;;;7.20;99.90;;;;;;4996099;28;20037;-63
2023/04/16 03:34:00;;;;;;;159.02;58.17;;;7.10;99.90;;;;;;5003007;28;20475;-64
2023/04/16 03:36:26;;;;;;;138.25;58.92;;;7.10;99.90;;;;;;5016551;28;20102;-64
2023/04/16 03:38:52;;;;;;;140.10;56.30;;;7.20;99.90;;;;;;5014040;28;20041;-64
2023/04/16 03:41:18;;;;;;;127.88;55.28;;;7.00;99.90;;;;;;5015863;28;20041;-65
2023/04/16 03:43:43;;;;;;;140.90;58.55;;;7.60;99.90;;;;;;5027916;28;20079;-66
2023/04/16 03:46:10;;;;;;;124.18;57.20;;;7.10;99.90;;;;;;5017557;28;20638;-65
2023/04/16 03:48:36;;;;;;;126.68;56.88;;;7.30;99.90;;;;;;5016073;28;20100;-65
2023/04/16 03:51:02;;;;;;;146.32;61.97;;;7.50;99.90;;;;;;4995860;28;20341;-64
2023/04/16 03:53:27;;;;;;;132.15;61.97;;;7.60;99.90;;;;;;5017614;28;20037;-64
2023/04/16 03:55:53;;;;;;;126.43;61.67;;;7.30;99.90;;;;;;5014586;28;20046;-65
2023/04/16 03:58:20;;;;;;;117.60;55.95;;;7.60;99.90;;;;;;5021241;28;20585;-64
2023/04/16 04:00:46;;;;;;;126.05;60.15;;;7.20;99.90;;;;;;5018243;28;20300;-66
2023/04/16 04:03:12;;;;;;;142.93;62.50;;;7.50;99.90;;;;;;5020698;28;20045;-63
2023/04/16 04:05:41;;;;;;;118.18;59.90;;;7.50;99.90;;;;;;5004398;28;20742;-64
2023/04/16 04:08:07;;;;;;;143.75;65.63;;;7.60;99.90;;;;;;5021740;28;20091;-65
2023/04/16 04:10:36;;;;;;;122.88;58.72;;;7.30;99.90;;;;;;5003523;28;20061;-63
2023/04/16 04:13:04;;;;;;;118.90;58.45;;;7.20;99.90;;;;;;5019146;28;20271;-63
2023/04/16 04:15:29;;;;;;;146.02;64.32;;;6.90;99.90;;;;;;5021011;28;20046;-63
2023/04/16 04:17:55;;;;;;;155.05;65.45;;;6.90;99.90;;;;;;5019494;28;20083;-63
2023/04/16 04:20:21;;;;;;;136.23;64.38;;;7.40;99.90;;;;;;5030301;28;20045;-64
2023/04/16 04:22:47;;;;;;;148.68;66.13;;;6.80;99.90;;;;;;5019553;28;20254;-63
2023/04/16 04:25:13;;;;;;;129.85;63.67;;;7.40;99.90;;;;;;5029555;28;20344;-63
2023/04/16 04:27:39;;;;;;;133.00;64.30;;;6.90;99.90;;;;;;5011577;28;20176;-64
2023/04/16 04:30:05;;;;;;;144.63;66.75;;;7.30;99.90;;;;;;5019055;28;20076;-64
2023/04/16 04:32:31;;;;;;;148.35;70.13;;;6.80;99.90;;;;;;5019375;28;20132;-64
2023/04/16 04:34:58;;;;;;;134.88;67.78;;;6.90;99.90;;;;;;5018857;28;20151;-63
2023/04/16 04:37:24;;;;;;;134.25;65.47;;;6.80;99.90;;;;;;5019703;28;20045;-63
2023/04/16 04:39:49;;;;;;;118.13;63.97;;;7.10;99.90;;;;;;5006320;28;20045;-64
2023/04/16 04:42:19;;;;;;;110.35;62.08;;;6.80;99.90;;;;;;5016128;28;20044;-63
2023/04/16 04:44:46;;;;;;;118.28;64.18;;;7.30;99.90;;;;;;5002467;28;20029;-63
2023/04/16 04:47:11;;;;;;;101.63;59.30;;;7.20;99.90;;;;;;5017417;28;20337;-64
2023/04/16 04:49:38;;;;;;;115.68;66.60;;;6.90;99.90;;;;;;5018518;28;20583;-64
2023/04/16 04:52:04;;;;;;;106.13;64.80;;;7.20;99.90;;;;;;5016485;28;20109;-64
2023/04/16 04:54:31;;;;;;;130.55;68.38;;;6.90;99.90;;;;;;5018201;28;20435;-64
2023/04/16 04:56:57;;;;;;;119.72;65.35;;;7.20;99.90;;;;;;5020904;28;20037;-63
2023/04/16 04:59:23;;;;;;;117.70;65.00;;;7.00;99.90;;;;;;5017514;28;20046;-63
2023/04/16 05:01:49;;;;;;;140.93;70.72;;;7.40;99.90;;;;;;5001157;28;20034;-64
2023/04/16 05:04:15;;;;;;;103.28;59.47;;;7.20;99.90;;;;;;5017856;28;20037;-64
2023/04/16 05:06:40;;;;;;;116.00;61.47;;;7.20;99.90;;;;;;5018532;28;20037;-65
2023/04/16 05:09:10;;;;;;;114.47;58.60;;;7.40;99.90;;;;;;5017064;28;20339;-65
2023/04/16 05:11:40;;;;;;;112.38;60.10;;;7.40;99.90;;;;;;5018506;28;20500;-64
2023/04/16 05:14:06;;;;;;;137.48;67.80;;;7.50;99.90;;;;;;5018980;28;20060;-65
2023/04/16 05:16:34;;;;;;;108.40;54.45;;;7.40;99.90;;;;;;5018419;28;20041;-64
2023/04/16 05:19:00;;;;;;;116.47;61.88;;;7.50;99.90;;;;;;5017702;28;20388;-65
2023/04/16 05:21:26;;;;;;;94.13;56.50;;;7.50;99.90;;;;;;5018782;28;20041;-64
2023/04/16 05:23:52;;;;;;;96.10;56.60;;;7.20;99.90;;;;;;5017807;28;20132;-65
2023/04/16 05:26:18;;;;;;;88.45;53.10;;;7.30;99.90;;;;;;5019067;28;20041;-64
2023/04/16 05:28:43;;;;;;;89.45;51.60;;;7.10;99.90;;;;;;5013550;28;20634;-64
2023/04/16 05:31:09;;;;;;;83.28;50.42;;;7.40;99.90;;;;;;5018152;28;20129;-64
2023/04/16 05:33:35;;;;;;;98.45;56.42;;;7.10;99.90;;;;;;5016118;28;20515;-63
2023/04/16 05:36:00;;;;;;;96.15;54.15;;;7.20;99.90;;;;;;5019461;28;20045;-64
2023/04/16 05:38:26;;;;;;;91.65;50.97;;;7.50;99.90;;;;;;5015690;28;20037;-65
2023/04/16 05:40:52;;;;;;;82.88;47.22;;;7.40;99.90;;;;;;5018468;28;20222;-64
2023/04/16 05:43:18;;;;;;;98.60;54.92;;;7.70;99.90;;;;;;5018743;28;20041;-64
2023/04/16 05:45:43;;;;;;;79.13;47.90;;;7.80;99.90;;;;;;5047237;28;20092;-65
2023/04/16 05:48:09;;;;;;;87.55;49.67;;;7.90;99.90;;;;;;5013854;28;20106;-64
2023/04/16 05:50:36;;;;;;;86.85;48.53;;;8.20;99.90;;;;;;4999627;28;20593;-64
2023/04/16 05:53:07;;;;;;;87.38;51.70;;;8.10;99.90;;;;;;5015633;28;20041;-64
2023/04/16 05:55:35;;;;;;;88.82;49.85;;;7.90;99.90;;;;;;5017339;28;20073;-64
2023/04/16 05:58:04;;;;;;;82.93;46.92;;;7.90;99.90;;;;;;5017855;28;20685;-64
2023/04/16 06:00:31;;;;;;;71.95;45.90;;;8.30;99.90;;;;;;5016111;28;20041;-64
2023/04/16 06:02:57;;;;;;;77.25;45.03;;;8.00;99.90;;;;;;5017737;28;20037;-64
2023/04/16 06:05:25;;;;;;;65.78;42.10;;;8.30;99.90;;;;;;5017009;28;20033;-63
2023/04/16 06:07:51;;;;;;;71.38;43.33;;;8.30;99.90;;;;;;5015656;28;20060;-63
2023/04/16 06:10:17;;;;;;;67.82;40.63;;;8.50;99.90;;;;;;5000985;28;20037;-64
2023/04/16 06:12:43;;;;;;;67.40;41.65;;;8.10;99.90;;;;;;5015672;28;20389;-65
2023/04/16 06:15:09;;;;;;;70.68;38.78;;;8.60;99.90;;;;;;5015561;28;20096;-63
2023/04/16 06:17:35;;;;;;;56.20;37.33;;;8.40;99.90;;;;;;5009100;28;20052;-64
2023/04/16 06:20:00;;;;;;;62.67;37.70;;;8.40;99.90;;;;;;5018887;28;20465;-64
2023/04/16 06:22:26;;;;;;;53.72;34.88;;;8.20;99.90;;;;;;5020898;28;20125;-63
2023/04/16 06:24:52;;;;;;;55.75;35.78;;;8.50;99.90;;;;;;5020873;28;20330;-63
2023/04/16 06:27:18;;;;;;;52.28;34.90;;;8.30;99.90;;;;;;5017409;28;20823;-65
2023/04/16 06:29:44;;;;;;;58.58;36.72;;;8.30;99.90;;;;;;5017065;28;20632;-66
2023/04/16 06:32:09;;;;;;;48.10;30.95;;;8.00;99.90;;;;;;5015670;28;20056;-65
2023/04/16 06:34:37;;;;;;;49.95;33.28;;;8.00;99.90;;;;;;5015075;28;20055;-65
2023/04/16 06:37:02;;;;;;;47.60;32.50;;;8.30;99.90;;;;;;5032867;28;20575;-65
2023/04/16 06:39:28;;;;;;;56.70;34.38;;;8.10;99.90;;;;;;5016571;28;20041;-63
2023/04/16 06:41:54;;;;;;;58.90;34.38;;;8.10;99.90;;;;;;5015899;28;20029;-64
2023/04/16 06:44:20;;;;;;;52.95;35.90;;;8.50;99.90;;;;;;5026829;28;20563;-63
2023/04/16 06:46:46;;;;;;;55.13;34.20;;;8.40;99.90;;;;;;5025676;28;20041;-64
2023/04/16 06:49:11;;;;;;;55.92;34.42;;;8.30;99.90;;;;;;5014866;28;20135;-64
2023/04/16 06:51:37;;;;;;;57.22;33.63;;;8.40;99.90;;;;;;5021066;28;20197;-64
2023/04/16 06:54:03;;;;;;;56.60;36.05;;;8.50;99.90;;;;;;5015881;28;20052;-64
2023/04/16 06:56:29;;;;;;;61.97;36.92;;;8.60;99.90;;;;;;5011596;28;20360;-64
2023/04/16 06:58:56;;;;;;;69.40;37.90;;;8.50;99.90;;;;;;5017608;28;20072;-64
2023/04/16 07:01:22;;;;;;;64.47;33.00;;;8.70;99.90;;;;;;5018771;28;20510;-64
2023/04/16 07:03:48;;;;;;;61.25;34.75;;;8.70;99.90;;;;;;5016087;28;20041;-64
2023/04/16 07:06:13;;;;;;;58.45;31.95;;;8.80;99.90;;;;;;5015981;28;20132;-64
2023/04/16 07:08:39;;;;;;;60.40;34.50;;;9.30;99.90;;;;;;5016583;28;20502;-64
2023/04/16 07:11:05;;;;;;;53.10;31.40;;;9.40;99.90;;;;;;5016696;28;20053;-64
2023/04/16 07:13:30;;;;;;;56.72;32.38;;;9.40;99.90;;;;;;5016467;28;20099;-64
2023/04/16 07:15:56;;;;;;;55.85;30.85;;;9.40;99.90;;;;;;5016960;28;20049;-63
2023/04/16 07:18:22;;;;;;;54.10;30.80;;;9.50;99.90;;;;;;5012202;28;20049;-63
2023/04/16 07:20:47;;;;;;;50.78;29.35;;;9.40;99.90;;;;;;5012267;28;20044;-64
2023/04/16 07:23:13;;;;;;;49.45;30.73;;;9.60;99.90;;;;;;5011514;28;20034;-63
2023/04/16 07:25:40;;;;;;;53.83;29.42;;;9.40;99.90;;;;;;5013538;28;20103;-65
2023/04/16 07:28:06;;;;;;;59.75;30.10;;;9.60;99.90;;;;;;5012680;28;20350;-63
2023/04/16 07:30:35;;;;;;;54.65;28.52;;;9.50;99.90;;;;;;4996014;28;20323;-63
2023/04/16 07:33:02;;;;;;;63.08;31.52;;;9.80;99.90;;;;;;5018470;28;20044;-63
2023/04/16 07:35:28;;;;;;;53.38;27.73;;;9.70;99.90;;;;;;5016361;28;20123;-64
2023/04/16 07:37:54;;;;;;;46.00;25.15;;;10.00;99.90;;;;;;5031489;28;20072;-64
2023/04/16 07:40:20;;;;;;;46.70;27.73;;;9.90;99.90;;;;;;5014327;28;20053;-65
2023/04/16 07:42:46;;;;;;;49.72;26.25;;;10.10;99.90;;;;;;5031100;28;20049;-65
2023/04/16 07:45:12;;;;;;;52.28;27.67;;;10.30;99.90;;;;;;5005948;28;20160;-63
2023/04/16 07:47:38;;;;;;;48.88;25.80;;;10.30;99.90;;;;;;5003024;28;20037;-64
2023/04/16 07:50:04;;;;;;;45.97;24.27;;;10.60;99.90;;;;;;5006088;28;20189;-64
2023/04/16 07:52:31;;;;;;;46.78;24.95;;;10.80;99.90;;;;;;5015571;28;20144;-64
2023/04/16 07:54:57;;;;;;;47.03;24.63;;;10.80;99.90;;;;;;5015118;28;20355;-63
2023/04/16 07:57:22;;;;;;;41.40;21.92;;;11.10;99.90;;;;;;4995480;28;20492;-65
2023/04/16 07:59:48;;;;;;;42.03;22.98;;;11.20;99.90;;;;;;5014240;28;20049;-64
2023/04/16 08:02:15;;;;;;;42.08;22.38;;;11.10;99.90;;;;;;5012881;28;20169;-64
2023/04/16 08:04:42;;;;;;;43.88;23.25;;;11.30;99.90;;;;;;5029917;28;20434;-64
2023/04/16 08:07:08;;;;;;;41.47;23.52;;;11.40;99.90;;;;;;5027347;28;20032;-63
2023/04/16 08:09:37;;;;;;;40.15;23.67;;;11.50;99.90;;;;;;5027821;28;20283;-64
2023/04/16 08:12:03;;;;;;;46.45;23.00;;;11.70;99.90;;;;;;5015133;28;20037;-64
2023/04/16 08:14:29;;;;;;;43.63;22.80;;;12.00;99.90;;;;;;4994386;28;20037;-64
2023/04/16 08:16:55;;;;;;;34.67;20.25;;;12.20;99.90;;;;;;5016380;28;20344;-63
2023/04/16 08:19:20;;;;;;;42.38;21.67;;;12.10;99.90;;;;;;4996277;28;20045;-65
2023/04/16 08:21:46;;;;;;;37.15;21.23;;;12.20;99.90;;;;;;5017211;28;20041;-63
2023/04/16 08:24:12;;;;;;;38.85;19.95;;;12.20;99.90;;;;;;5027999;28;20037;-64
2023/04/16 08:26:37;;;;;;;40.75;20.30;;;12.60;99.90;;;;;;5018145;28;20073;-64
2023/04/16 08:29:03;;;;;;;40.85;18.38;;;12.70;99.90;;;;;;5014729;28;20063;-63
2023/04/16 08:31:30;;;;;;;35.65;18.75;;;12.60;99.90;;;;;;4999778;28;20048;-63
2023/04/16 08:33:55;;;;;;;39.17;18.02;;;12.70;99.90;;;;;;5017916;28;20144;-64
2023/04/16 08:36:21;;;;;;;32.58;17.75;;;12.80;99.90;;;;;;5021105;28;20037;-63
2023/04/16 08:38:46;;;;;;;28.77;15.95;;;13.00;99.90;;;;;;5022774;28;20135;-64
2023/04/16 08:41:13;;;;;;;26.95;15.70;;;13.10;99.90;;;;;;5022388;28;20208;-64
2023/04/16 08:43:44;;;;;;;30.13;15.63;;;13.20;5.40;;;;;;5023894;28;20495;-64
2023/04/16 08:46:15;;;;;;;29.77;15.93;;;13.30;99.90;;;;;;5018101;28;20620;-64
2023/04/16 08:48:42;;;;;;;33.50;16.30;;;13.40;99.90;;;;;;5025910;28;20041;-63
2023/04/16 08:51:09;;;;;;;29.73;15.80;;;13.60;99.90;;;;;;5022234;28;20304;-66
2023/04/16 08:53:52;;;;;;;32.40;15.70;;;13.40;99.90;;;;;;5022907;28;20178;-64
2023/04/16 08:56:23;;;;;;;29.02;15.60;;;13.50;99.90;;;;;;5025539;28;20037;-64
2023/04/16 08:58:50;;;;;;;33.53;15.50;;;13.50;99.90;;;;;;5022625;28;20045;-65
2023/04/16 09:01:17;;;;;;;28.25;15.27;;;13.60;99.90;;;;;;5019292;28;20108;-64
2023/04/16 09:03:47;;;;;;;35.35;15.90;;;13.70;99.90;;;;;;5026625;28;20096;-64
2023/04/16 09:06:15;;;;;;;35.17;14.48;;;13.60;99.90;;;;;;5023711;28;20048;-64
2023/04/16 09:08:45;;;;;;;33.45;14.73;;;13.60;99.90;;;;;;5020975;28;20136;-64
2023/04/16 09:11:12;;;;;;;36.55;13.77;;;13.70;99.90;;;;;;5026367;28;20515;-64
2023/04/16 09:13:38;;;;;;;30.45;13.73;;;13.70;2.70;;;;;;5039071;28;20397;-65
2023/04/16 09:16:07;;;;;;;35.08;14.43;;;13.70;99.90;;;;;;5020863;28;20569;-64
2023/04/16 09:18:32;;;;;;;30.67;14.55;;;13.80;31.10;;;;;;5038805;28;20498;-64
2023/04/16 09:20:58;;;;;;;27.65;13.77;;;13.80;81.70;;;;;;5012199;28;20164;-64
2023/04/16 09:23:24;;;;;;;33.35;13.63;;;14.00;99.80;;;;;;5025616;28;20443;-63
2023/04/16 09:25:50;;;;;;;31.45;14.50;;;14.10;46.50;;;;;;5021423;28;20037;-64
2023/04/16 09:28:41;;;;;;;32.88;13.48;;;14.20;1.00;;;;;;4998487;28;20609;-64
2023/04/16 09:31:12;;;;;;;31.90;13.80;;;14.10;1.00;;;;;;5032313;28;20542;-64
2023/04/16 09:33:38;;;;;;;30.95;13.27;;;14.00;1.00;;;;;;5036515;28;20554;-64
2023/04/16 09:36:05;;;;;;;24.92;12.60;;;14.00;1.00;;;;;;5008855;28;20033;-64
2023/04/16 09:38:46;;;;;;;31.58;14.05;;;13.80;1.00;;;;;;5018596;28;20084;-64
2023/04/16 09:41:15;;;;;;;36.08;14.77;;;13.80;99.90;;;;;;5024774;28;20041;-65
2023/04/16 09:43:48;;;;;;;32.72;14.50;;;13.80;1.00;;;;;;5021562;28;20046;-64
2023/04/16 09:46:13;;;;;;;33.33;14.05;;;13.70;1.00;;;;;;5020846;28;20338;-65
2023/04/16 09:48:39;;;;;;;33.15;13.88;;;13.80;1.00;;;;;;5024247;28;20080;-64
2023/04/16 09:51:05;;;;;;;25.98;12.43;;;13.80;1.00;;;;;;5019049;28;20334;-65
2023/04/16 09:53:31;;;;;;;26.00;12.23;;;13.90;1.00;;;;;;5020482;28;20388;-64
2023/04/16 09:55:59;;;;;;;29.77;13.13;;;14.10;1.00;;;;;;5028834;28;20537;-64
2023/04/16 09:58:25;;;;;;;30.83;12.90;;;14.20;1.00;;;;;;5006999;28;20213;-64
2023/04/16 10:01:08;;;;;;;29.63;12.73;;;14.30;1.00;;;;;;5021577;28;20128;-63
2023/04/16 10:03:35;;;;;;;29.30;12.07;;;14.50;99.90;;;;;;5019062;28;20045;-64
2023/04/16 10:06:18;;;;;;;30.65;13.35;;;14.50;99.90;;;;;;5022936;28;20038;-64
2023/04/16 10:08:48;;;;;;;27.20;11.68;;;14.50;99.90;;;;;;5002010;28;20060;-63
2023/04/16 10:11:17;;;;;;;30.48;11.32;;;14.60;99.90;;;;;;5021437;28;20033;-64
2023/04/16 10:13:43;;;;;;;27.77;12.05;;;14.80;99.90;;;;;;5019332;28;20079;-64
2023/04/16 10:16:10;;;;;;;29.63;12.15;;;14.90;99.90;;;;;;5014029;28;20133;-63
2023/04/16 10:18:37;;;;;;;26.83;12.77;;;15.10;99.90;;;;;;5020398;28;20057;-64
2023/04/16 10:21:04;;;;;;;28.52;12.45;;;15.20;99.90;;;;;;5021158;28;20040;-64
2023/04/16 10:23:31;;;;;;;22.95;10.90;;;15.20;99.90;;;;;;5024452;28;20049;-63
2023/04/16 10:25:58;;;;;;;25.20;10.85;;;15.40;99.90;;;;;;5020957;28;20061;-63
2023/04/16 10:28:24;;;;;;;24.52;11.68;;;15.30;99.90;;;;;;5017798;28;20661;-64
2023/04/16 10:30:51;;;;;;;27.98;12.30;;;15.40;99.90;;;;;;5038125;28;20349;-64
2023/04/16 10:33:22;;;;;;;25.60;11.10;;;15.60;99.90;;;;;;5023594;28;20351;-65
2023/04/16 10:35:49;;;;;;;25.38;11.13;;;15.70;99.90;;;;;;5021574;28;20041;-65
2023/04/16 10:38:24;;;;;;;24.67;11.55;;;15.60;99.90;;;;;;5019925;28;20120;-65
2023/04/16 10:40:56;;;;;;;24.65;11.40;;;15.60;99.90;;;;;;5021672;28;20519;-64
2023/04/16 10:43:24;;;;;;;26.50;11.98;;;15.70;99.90;;;;;;5021360;28;20029;-64
2023/04/16 10:45:50;;;;;;;22.80;11.82;;;15.80;99.90;;;;;;5015040;28;20211;-64
2023/04/16 10:48:18;;;;;;;25.10;12.38;;;15.80;99.90;;;;;;5020333;28;20037;-64
2023/04/16 10:50:55;;;;;;;23.23;12.65;;;15.80;99.90;;;;;;5016041;28;21096;-64
2023/04/16 10:53:26;;;;;;;25.73;13.25;;;15.90;99.90;;;;;;5030697;28;20653;-65
2023/04/16 10:55:57;;;;;;;22.17;12.05;;;15.90;99.90;;;;;;5021152;28;20112;-65
2023/04/16 10:58:27;;;;;;;24.17;12.02;;;15.90;99.90;;;;;;5020090;28;20079;-65
2023/04/16 11:00:53;;;;;;;24.63;12.05;;;16.00;99.90;;;;;;5035838;28;20180;-65
2023/04/16 11:03:19;;;;;;;23.45;12.30;;;16.00;99.90;;;;;;5007000;28;20045;-65
2023/04/16 11:05:48;;;;;;;24.88;12.98;;;16.00;99.90;;;;;;5019927;28;20037;-65
2023/04/16 11:08:17;;;;;;;29.05;13.43;;;15.80;99.90;;;;;;5017905;28;20439;-64
2023/04/16 11:10:43;;;;;;;24.02;12.98;;;15.70;99.90;;;;;;5019414;28;20045;-65
2023/04/16 11:13:11;;;;;;;22.15;13.27;;;15.60;99.90;;;;;;5037598;28;20040;-64
2023/04/16 11:15:37;;;;;;;22.52;14.68;;;15.70;99.90;;;;;;5038457;28;20045;-65
2023/04/16 11:18:03;;;;;;;26.48;15.88;;;15.60;99.90;;;;;;5022308;28;20243;-64
2023/04/16 11:20:29;;;;;;;21.08;14.48;;;15.50;99.90;;;;;;5030416;28;20041;-64
2023/04/16 11:22:56;;;;;;;24.42;15.77;;;15.30;99.90;;;;;;5019655;28;20087;-65
2023/04/16 11:25:32;;;;;;;23.85;15.48;;;15.20;99.90;;;;;;5028559;28;20045;-64
2023/04/16 11:27:58;;;;;;;23.15;15.55;;;15.10;99.90;;;;;;5016600;28;20045;-64
2023/04/16 11:30:32;;;;;;;24.85;15.82;;;15.30;99.90;;;;;;5020915;28;20527;-64
2023/04/16 11:33:00;;;;;;;25.95;16.13;;;15.30;99.90;;;;;;5020527;28;20033;-65
2023/04/16 11:35:26;;;;;;;24.73;15.45;;;15.30;99.90;;;;;;5020929;28;20041;-63
2023/04/16 11:37:55;;;;;;;26.33;14.63;;;15.30;99.90;;;;;;5023499;28;20613;-63
2023/04/16 11:40:21;;;;;;;25.85;14.57;;;15.50;99.90;;;;;;5020381;28;20160;-64
2023/04/16 11:42:47;;;;;;;26.95;15.32;;;15.80;99.90;;;;;;5021511;28;20133;-65
2023/04/16 11:45:13;;;;;;;24.23;15.63;;;15.80;99.90;;;;;;5019567;28;20033;-63
2023/04/16 11:47:45;;;;;;;21.90;15.32;;;15.80;99.90;;;;;;5021332;28;20522;-62
2023/04/16 11:50:22;;;;;;;22.60;15.52;;;15.70;99.90;;;;;;5019483;28;20038;-63
2023/04/16 11:52:49;;;;;;;22.02;14.90;;;15.70;99.90;;;;;;5018806;28;20041;-63
2023/04/16 11:55:15;;;;;;;23.10;16.13;;;15.60;99.90;;;;;;5017488;28;20037;-63
2023/04/16 11:57:41;;;;;;;22.52;15.73;;;15.60;99.90;;;;;;5030472;28;20041;-63
2023/04/16 12:00:12;;;;;;;21.50;16.52;;;15.70;99.90;;;;;;5018829;28;20055;-62
2023/04/16 12:02:44;;;;;;;19.60;17.05;;;15.50;99.90;;;;;;5018125;28;20567;-63
2023/04/16 12:05:32;;;;;;;20.35;17.50;;;15.50;99.90;;;;;;4999332;28;20053;-64
2023/04/16 12:08:00;;;;;;;21.13;17.05;;;15.40;99.90;;;;;;5016218;28;20033;-63
2023/04/16 12:10:27;;;;;;;20.60;17.60;;;15.60;99.90;;;;;;5019868;28;20246;-63
2023/04/16 12:12:52;;;;;;;20.92;16.23;;;15.20;99.90;;;;;;5036061;28;20146;-63
2023/04/16 12:15:18;;;;;;;23.80;16.95;;;15.40;99.90;;;;;;5021490;28;20132;-62
2023/04/16 12:17:44;;;;;;;20.42;15.82;;;15.30;99.90;;;;;;5019593;28;20037;-64
2023/04/16 12:20:11;;;;;;;21.75;17.33;;;15.20;99.90;;;;;;5018398;28;20121;-63
2023/04/16 12:22:39;;;;;;;22.08;17.80;;;15.30;99.90;;;;;;5019857;28;20128;-63
2023/04/16 12:25:09;;;;;;;23.90;18.23;;;15.20;99.90;;;;;;5020768;28;20318;-64
2023/04/16 12:27:45;;;;;;;24.50;17.58;;;15.10;99.90;;;;;;5034730;28;20467;-64